sensor_id;sensor_type;location;lat;lon;timestamp;P1;durP1;ratioP1;P2;durP2;ratioP2
7051;SDS011;3567;52.444;13.556;2022-08-21T00:01:40;9.68;;;8.70;;
7051;SDS011;3567;52.444;13.556;2022-08-21T00:04:06;11.18;;;9.25;;
7051;SDS011;3567;52.444;13.556;2022-08-21T00:06:33;8.52;;;7.72;;
7051;SDS011;3567;52.444;13.556;2022-08-21T00:08:59;9.30;;;8.35;;
7051;SDS011;3567;52.444;13.556;2022-08-21T00:11:25;8.52;;;7.72;;
7051;SDS011;3567;52.444;13.556;2022-08-21T00:13:52;8.95;;;8.10;;
7051;SDS011;3567;52.444;13.556;2022-08-21T00:16:18;10.85;;;9.75;;
7051;SDS011;3567;52.444;13.556;2022-08-21T00:18:44;9.95;;;8.98;;
7051;SDS011;3567;52.444;13.556;2022-08-21T00:21:11;9.73;;;8.77;;
7051;SDS011;3567;52.444;13.556;2022-08-21T00:23:37;13.10;;;10.52;;
7051;SDS011;3567;52.444;13.556;2022-08-21T00:26:03;10.45;;;9.35;;
7051;SDS011;3567;52.444;13.556;2022-08-21T00:28:28;11.25;;;9.98;;
7051;SDS011;3567;52.444;13.556;2022-08-21T00:30:55;10.05;;;8.98;;
7051;SDS011;3567;52.444;13.556;2022-08-21T00:33:21;11.95;;;10.82;;
7051;SDS011;3567;52.444;13.556;2022-08-21T00:35:47;11.25;;;10.13;;
7051;SDS011;3567;52.444;13.556;2022-08-21T00:38:13;10.20;;;9.30;;
7051;SDS011;3567;52.444;13.556;2022-08-21T00:43:14;8.30;;;7.53;;
7051;SDS011;3567;52.444;13.556;2022-08-21T00:45:41;13.43;;;12.13;;
7051;SDS011;3567;52.444;13.556;2022-08-21T00:48:07;9.05;;;8.02;;
7051;SDS011;3567;52.444;13.556;2022-08-21T00:50:33;9.95;;;8.98;;
7051;SDS011;3567;52.444;13.556;2022-08-21T00:53:03;10.63;;;8.65;;
7051;SDS011;3567;52.444;13.556;2022-08-21T00:55:31;8.00;;;7.28;;
7051;SDS011;3567;52.444;13.556;2022-08-21T00:57:58;8.52;;;7.22;;
7051;SDS011;3567;52.444;13.556;2022-08-21T01:00:30;7.55;;;6.63;;
7051;SDS011;3567;52.444;13.556;2022-08-21T01:02:58;8.73;;;7.82;;
7051;SDS011;3567;52.444;13.556;2022-08-21T01:05:25;8.07;;;7.38;;
7051;SDS011;3567;52.444;13.556;2022-08-21T01:07:52;10.80;;;9.52;;
7051;SDS011;3567;52.444;13.556;2022-08-21T01:10:18;11.57;;;10.52;;
7051;SDS011;3567;52.444;13.556;2022-08-21T01:12:45;12.38;;;10.48;;
7051;SDS011;3567;52.444;13.556;2022-08-21T01:15:10;10.45;;;9.05;;
7051;SDS011;3567;52.444;13.556;2022-08-21T01:17:40;7.13;;;6.47;;
7051;SDS011;3567;52.444;13.556;2022-08-21T01:20:07;7.88;;;6.65;;
7051;SDS011;3567;52.444;13.556;2022-08-21T01:22:34;7.32;;;6.63;;
7051;SDS011;3567;52.444;13.556;2022-08-21T01:25:00;10.93;;;9.77;;
7051;SDS011;3567;52.444;13.556;2022-08-21T01:27:26;9.15;;;8.38;;
7051;SDS011;3567;52.444;13.556;2022-08-21T01:29:56;7.32;;;6.60;;
7051;SDS011;3567;52.444;13.556;2022-08-21T01:32:26;8.23;;;7.43;;
7051;SDS011;3567;52.444;13.556;2022-08-21T01:34:52;9.50;;;7.10;;
7051;SDS011;3567;52.444;13.556;2022-08-21T01:37:18;8.75;;;6.93;;
7051;SDS011;3567;52.444;13.556;2022-08-21T01:39:45;9.15;;;8.30;;
7051;SDS011;3567;52.444;13.556;2022-08-21T01:42:11;10.95;;;9.88;;
7051;SDS011;3567;52.444;13.556;2022-08-21T01:44:37;7.10;;;6.60;;
7051;SDS011;3567;52.444;13.556;2022-08-21T01:47:04;7.05;;;6.45;;
7051;SDS011;3567;52.444;13.556;2022-08-21T01:49:32;7.57;;;6.88;;
7051;SDS011;3567;52.444;13.556;2022-08-21T01:51:58;9.18;;;7.15;;
7051;SDS011;3567;52.444;13.556;2022-08-21T01:54:23;12.88;;;6.82;;
7051;SDS011;3567;52.444;13.556;2022-08-21T01:56:51;9.73;;;6.07;;
7051;SDS011;3567;52.444;13.556;2022-08-21T01:59:17;7.43;;;6.80;;
7051;SDS011;3567;52.444;13.556;2022-08-21T02:01:43;7.70;;;6.90;;
7051;SDS011;3567;52.444;13.556;2022-08-21T02:04:09;7.38;;;6.65;;
7051;SDS011;3567;52.444;13.556;2022-08-21T02:06:35;6.63;;;5.90;;
7051;SDS011;3567;52.444;13.556;2022-08-21T02:09:03;8.50;;;5.82;;
7051;SDS011;3567;52.444;13.556;2022-08-21T02:11:30;5.57;;;4.78;;
7051;SDS011;3567;52.444;13.556;2022-08-21T02:13:57;6.82;;;5.72;;
7051;SDS011;3567;52.444;13.556;2022-08-21T02:16:22;6.97;;;5.43;;
7051;SDS011;3567;52.444;13.556;2022-08-21T02:18:48;6.20;;;5.05;;
7051;SDS011;3567;52.444;13.556;2022-08-21T02:21:13;5.68;;;4.78;;
7051;SDS011;3567;52.444;13.556;2022-08-21T02:23:39;10.32;;;4.55;;
7051;SDS011;3567;52.444;13.556;2022-08-21T02:26:05;6.35;;;4.65;;
7051;SDS011;3567;52.444;13.556;2022-08-21T02:28:32;7.82;;;4.00;;
7051;SDS011;3567;52.444;13.556;2022-08-21T02:30:58;4.85;;;4.10;;
7051;SDS011;3567;52.444;13.556;2022-08-21T02:33:25;6.00;;;3.60;;
7051;SDS011;3567;52.444;13.556;2022-08-21T02:35:51;4.90;;;4.45;;
7051;SDS011;3567;52.444;13.556;2022-08-21T02:38:18;8.07;;;5.07;;
7051;SDS011;3567;52.444;13.556;2022-08-21T02:40:46;5.90;;;5.38;;
7051;SDS011;3567;52.444;13.556;2022-08-21T02:43:14;4.30;;;3.92;;
7051;SDS011;3567;52.444;13.556;2022-08-21T02:45:42;7.32;;;4.55;;
7051;SDS011;3567;52.444;13.556;2022-08-21T02:48:09;5.57;;;5.07;;
7051;SDS011;3567;52.444;13.556;2022-08-21T02:50:38;9.02;;;5.10;;
7051;SDS011;3567;52.444;13.556;2022-08-21T02:53:06;4.57;;;4.28;;
7051;SDS011;3567;52.444;13.556;2022-08-21T02:55:34;5.32;;;4.25;;
7051;SDS011;3567;52.444;13.556;2022-08-21T02:58:02;4.65;;;4.20;;
7051;SDS011;3567;52.444;13.556;2022-08-21T03:00:29;8.80;;;5.03;;
7051;SDS011;3567;52.444;13.556;2022-08-21T03:02:56;5.05;;;4.60;;
7051;SDS011;3567;52.444;13.556;2022-08-21T03:05:22;6.60;;;4.10;;
7051;SDS011;3567;52.444;13.556;2022-08-21T03:07:49;5.03;;;4.53;;
7051;SDS011;3567;52.444;13.556;2022-08-21T03:10:15;8.32;;;5.25;;
7051;SDS011;3567;52.444;13.556;2022-08-21T03:12:41;5.25;;;4.65;;
7051;SDS011;3567;52.444;13.556;2022-08-21T03:15:08;8.32;;;5.15;;
7051;SDS011;3567;52.444;13.556;2022-08-21T03:17:35;5.03;;;4.50;;
7051;SDS011;3567;52.444;13.556;2022-08-21T03:20:02;5.60;;;4.80;;
7051;SDS011;3567;52.444;13.556;2022-08-21T03:22:29;8.82;;;5.07;;
7051;SDS011;3567;52.444;13.556;2022-08-21T03:24:55;7.00;;;4.35;;
7051;SDS011;3567;52.444;13.556;2022-08-21T03:27:22;7.00;;;4.72;;
7051;SDS011;3567;52.444;13.556;2022-08-21T03:29:47;7.85;;;3.97;;
7051;SDS011;3567;52.444;13.556;2022-08-21T03:32:12;6.30;;;4.57;;
7051;SDS011;3567;52.444;13.556;2022-08-21T03:34:38;4.38;;;3.97;;
7051;SDS011;3567;52.444;13.556;2022-08-21T03:37:04;7.70;;;3.80;;
7051;SDS011;3567;52.444;13.556;2022-08-21T03:39:31;4.00;;;3.60;;
7051;SDS011;3567;52.444;13.556;2022-08-21T03:41:56;5.13;;;4.65;;
7051;SDS011;3567;52.444;13.556;2022-08-21T03:44:22;9.57;;;3.90;;
7051;SDS011;3567;52.444;13.556;2022-08-21T03:46:47;3.90;;;3.50;;
7051;SDS011;3567;52.444;13.556;2022-08-21T03:49:14;5.45;;;3.75;;
7051;SDS011;3567;52.444;13.556;2022-08-21T03:51:39;9.07;;;3.35;;
7051;SDS011;3567;52.444;13.556;2022-08-21T03:54:05;5.32;;;3.13;;
7051;SDS011;3567;52.444;13.556;2022-08-21T03:56:30;4.55;;;3.58;;
7051;SDS011;3567;52.444;13.556;2022-08-21T03:58:56;4.40;;;3.60;;
7051;SDS011;3567;52.444;13.556;2022-08-21T04:01:22;4.40;;;3.42;;
7051;SDS011;3567;52.444;13.556;2022-08-21T04:03:47;7.55;;;3.88;;
7051;SDS011;3567;52.444;13.556;2022-08-21T04:06:13;5.32;;;3.63;;
7051;SDS011;3567;52.444;13.556;2022-08-21T04:08:38;4.15;;;3.53;;
7051;SDS011;3567;52.444;13.556;2022-08-21T04:11:04;6.88;;;3.72;;
7051;SDS011;3567;52.444;13.556;2022-08-21T04:13:30;2.70;;;2.50;;
7051;SDS011;3567;52.444;13.556;2022-08-21T04:15:56;7.65;;;3.47;;
7051;SDS011;3567;52.444;13.556;2022-08-21T04:18:23;4.88;;;3.00;;
7051;SDS011;3567;52.444;13.556;2022-08-21T04:20:49;6.18;;;3.25;;
7051;SDS011;3567;52.444;13.556;2022-08-21T04:23:18;6.20;;;2.67;;
7051;SDS011;3567;52.444;13.556;2022-08-21T04:25:44;3.58;;;2.50;;
7051;SDS011;3567;52.444;13.556;2022-08-21T04:28:09;5.15;;;3.40;;
7051;SDS011;3567;52.444;13.556;2022-08-21T04:30:35;7.97;;;3.60;;
7051;SDS011;3567;52.444;13.556;2022-08-21T04:33:00;2.95;;;2.42;;
7051;SDS011;3567;52.444;13.556;2022-08-21T04:35:27;5.13;;;2.28;;
7051;SDS011;3567;52.444;13.556;2022-08-21T04:37:53;5.93;;;2.60;;
7051;SDS011;3567;52.444;13.556;2022-08-21T04:40:20;5.60;;;2.72;;
7051;SDS011;3567;52.444;13.556;2022-08-21T04:42:48;3.28;;;2.85;;
7051;SDS011;3567;52.444;13.556;2022-08-21T04:45:16;8.82;;;3.15;;
7051;SDS011;3567;52.444;13.556;2022-08-21T04:47:45;5.55;;;3.10;;
7051;SDS011;3567;52.444;13.556;2022-08-21T04:50:13;5.25;;;2.67;;
7051;SDS011;3567;52.444;13.556;2022-08-21T04:52:38;5.43;;;2.45;;
7051;SDS011;3567;52.444;13.556;2022-08-21T04:55:04;4.35;;;2.30;;
7051;SDS011;3567;52.444;13.556;2022-08-21T04:57:30;4.22;;;2.40;;
7051;SDS011;3567;52.444;13.556;2022-08-21T04:59:55;5.05;;;2.50;;
7051;SDS011;3567;52.444;13.556;2022-08-21T05:02:21;5.35;;;2.30;;
7051;SDS011;3567;52.444;13.556;2022-08-21T05:04:48;3.58;;;2.08;;
7051;SDS011;3567;52.444;13.556;2022-08-21T05:07:20;3.80;;;2.40;;
7051;SDS011;3567;52.444;13.556;2022-08-21T05:09:49;2.50;;;2.20;;
7051;SDS011;3567;52.444;13.556;2022-08-21T05:12:15;5.50;;;3.22;;
7051;SDS011;3567;52.444;13.556;2022-08-21T05:14:41;6.28;;;2.55;;
7051;SDS011;3567;52.444;13.556;2022-08-21T05:17:08;3.05;;;2.00;;
7051;SDS011;3567;52.444;13.556;2022-08-21T05:19:34;3.30;;;2.33;;
7051;SDS011;3567;52.444;13.556;2022-08-21T05:22:00;4.28;;;2.40;;
7051;SDS011;3567;52.444;13.556;2022-08-21T05:24:26;12.57;;;2.20;;
7051;SDS011;3567;52.444;13.556;2022-08-21T05:26:52;3.22;;;1.77;;
7051;SDS011;3567;52.444;13.556;2022-08-21T05:29:17;6.00;;;2.45;;
7051;SDS011;3567;52.444;13.556;2022-08-21T05:31:44;4.68;;;3.00;;
7051;SDS011;3567;52.444;13.556;2022-08-21T05:34:10;4.50;;;2.30;;
7051;SDS011;3567;52.444;13.556;2022-08-21T05:36:36;3.13;;;1.65;;
7051;SDS011;3567;52.444;13.556;2022-08-21T05:39:02;4.13;;;1.80;;
7051;SDS011;3567;52.444;13.556;2022-08-21T05:41:28;6.72;;;1.83;;
7051;SDS011;3567;52.444;13.556;2022-08-21T05:43:53;6.28;;;1.98;;
7051;SDS011;3567;52.444;13.556;2022-08-21T05:46:19;9.73;;;1.85;;
7051;SDS011;3567;52.444;13.556;2022-08-21T05:48:44;4.35;;;1.90;;
7051;SDS011;3567;52.444;13.556;2022-08-21T05:51:13;6.95;;;1.45;;
7051;SDS011;3567;52.444;13.556;2022-08-21T05:53:40;3.97;;;1.63;;
7051;SDS011;3567;52.444;13.556;2022-08-21T05:56:07;2.13;;;1.40;;
7051;SDS011;3567;52.444;13.556;2022-08-21T05:58:34;5.65;;;1.55;;
7051;SDS011;3567;52.444;13.556;2022-08-21T06:01:00;5.05;;;1.83;;
7051;SDS011;3567;52.444;13.556;2022-08-21T06:03:28;5.93;;;1.90;;
7051;SDS011;3567;52.444;13.556;2022-08-21T06:05:57;2.28;;;0.85;;
7051;SDS011;3567;52.444;13.556;2022-08-21T06:08:23;3.95;;;1.50;;
7051;SDS011;3567;52.444;13.556;2022-08-21T06:10:49;5.45;;;2.00;;
7051;SDS011;3567;52.444;13.556;2022-08-21T06:13:16;3.55;;;1.42;;
7051;SDS011;3567;52.444;13.556;2022-08-21T06:15:43;9.15;;;1.85;;
7051;SDS011;3567;52.444;13.556;2022-08-21T06:18:09;6.72;;;1.20;;
7051;SDS011;3567;52.444;13.556;2022-08-21T06:20:35;4.72;;;1.50;;
7051;SDS011;3567;52.444;13.556;2022-08-21T06:23:01;6.82;;;1.70;;
7051;SDS011;3567;52.444;13.556;2022-08-21T06:25:26;4.07;;;1.88;;
7051;SDS011;3567;52.444;13.556;2022-08-21T06:27:52;6.22;;;1.30;;
7051;SDS011;3567;52.444;13.556;2022-08-21T06:30:18;4.57;;;1.67;;
7051;SDS011;3567;52.444;13.556;2022-08-21T06:32:44;4.03;;;1.35;;
7051;SDS011;3567;52.444;13.556;2022-08-21T06:35:09;5.88;;;1.42;;
7051;SDS011;3567;52.444;13.556;2022-08-21T06:37:35;9.05;;;1.25;;
7051;SDS011;3567;52.444;13.556;2022-08-21T06:40:01;2.78;;;1.23;;
7051;SDS011;3567;52.444;13.556;2022-08-21T06:42:28;4.95;;;1.10;;
7051;SDS011;3567;52.444;13.556;2022-08-21T06:44:53;6.20;;;1.33;;
7051;SDS011;3567;52.444;13.556;2022-08-21T06:47:19;3.35;;;1.20;;
7051;SDS011;3567;52.444;13.556;2022-08-21T06:49:44;8.57;;;1.30;;
7051;SDS011;3567;52.444;13.556;2022-08-21T06:52:10;6.95;;;1.20;;
7051;SDS011;3567;52.444;13.556;2022-08-21T06:54:38;5.68;;;1.30;;
7051;SDS011;3567;52.444;13.556;2022-08-21T06:57:04;5.97;;;1.38;;
7051;SDS011;3567;52.444;13.556;2022-08-21T06:59:30;5.47;;;1.10;;
7051;SDS011;3567;52.444;13.556;2022-08-21T07:01:57;4.35;;;1.15;;
7051;SDS011;3567;52.444;13.556;2022-08-21T07:04:23;5.30;;;1.40;;
7051;SDS011;3567;52.444;13.556;2022-08-21T07:06:48;6.75;;;1.80;;
7051;SDS011;3567;52.444;13.556;2022-08-21T07:09:13;5.88;;;1.35;;
7051;SDS011;3567;52.444;13.556;2022-08-21T07:11:39;4.28;;;1.25;;
7051;SDS011;3567;52.444;13.556;2022-08-21T07:14:06;3.63;;;1.17;;
7051;SDS011;3567;52.444;13.556;2022-08-21T07:16:31;4.63;;;1.17;;
7051;SDS011;3567;52.444;13.556;2022-08-21T07:18:56;7.18;;;1.08;;
7051;SDS011;3567;52.444;13.556;2022-08-21T07:21:22;5.13;;;1.00;;
7051;SDS011;3567;52.444;13.556;2022-08-21T07:23:49;7.75;;;1.42;;
7051;SDS011;3567;52.444;13.556;2022-08-21T07:26:17;3.25;;;0.90;;
7051;SDS011;3567;52.444;13.556;2022-08-21T07:28:45;8.63;;;1.33;;
7051;SDS011;3567;52.444;13.556;2022-08-21T07:31:13;3.05;;;1.33;;
7051;SDS011;3567;52.444;13.556;2022-08-21T07:33:41;2.28;;;0.68;;
7051;SDS011;3567;52.444;13.556;2022-08-21T07:36:07;4.28;;;0.95;;
7051;SDS011;3567;52.444;13.556;2022-08-21T07:38:33;3.03;;;0.85;;
7051;SDS011;3567;52.444;13.556;2022-08-21T07:40:59;5.13;;;1.42;;
7051;SDS011;3567;52.444;13.556;2022-08-21T07:43:26;3.50;;;0.93;;
7051;SDS011;3567;52.444;13.556;2022-08-21T07:45:53;5.22;;;1.20;;
7051;SDS011;3567;52.444;13.556;2022-08-21T07:48:19;2.67;;;1.00;;
7051;SDS011;3567;52.444;13.556;2022-08-21T07:50:48;4.03;;;1.00;;
7051;SDS011;3567;52.444;13.556;2022-08-21T07:53:14;3.63;;;1.05;;
7051;SDS011;3567;52.444;13.556;2022-08-21T07:55:39;5.32;;;1.33;;
7051;SDS011;3567;52.444;13.556;2022-08-21T07:58:05;5.68;;;1.42;;
7051;SDS011;3567;52.444;13.556;2022-08-21T08:00:31;3.13;;;0.77;;
7051;SDS011;3567;52.444;13.556;2022-08-21T08:02:56;3.65;;;0.70;;
7051;SDS011;3567;52.444;13.556;2022-08-21T08:05:27;3.33;;;0.98;;
7051;SDS011;3567;52.444;13.556;2022-08-21T08:07:54;3.85;;;0.82;;
7051;SDS011;3567;52.444;13.556;2022-08-21T08:10:20;3.83;;;0.70;;
7051;SDS011;3567;52.444;13.556;2022-08-21T08:12:47;2.58;;;0.90;;
7051;SDS011;3567;52.444;13.556;2022-08-21T08:15:16;2.80;;;1.13;;
7051;SDS011;3567;52.444;13.556;2022-08-21T08:17:44;5.00;;;0.98;;
7051;SDS011;3567;52.444;13.556;2022-08-21T08:20:11;1.80;;;0.73;;
7051;SDS011;3567;52.444;13.556;2022-08-21T08:22:38;3.28;;;0.70;;
7051;SDS011;3567;52.444;13.556;2022-08-21T08:25:04;2.58;;;0.65;;
7051;SDS011;3567;52.444;13.556;2022-08-21T08:27:31;3.70;;;0.90;;
7051;SDS011;3567;52.444;13.556;2022-08-21T08:29:57;4.13;;;1.33;;
7051;SDS011;3567;52.444;13.556;2022-08-21T08:32:23;1.17;;;0.60;;
7051;SDS011;3567;52.444;13.556;2022-08-21T08:34:48;5.45;;;1.00;;
7051;SDS011;3567;52.444;13.556;2022-08-21T08:37:16;1.38;;;0.55;;
7051;SDS011;3567;52.444;13.556;2022-08-21T08:39:43;2.17;;;0.93;;
7051;SDS011;3567;52.444;13.556;2022-08-21T08:42:11;3.60;;;1.02;;
7051;SDS011;3567;52.444;13.556;2022-08-21T08:44:42;4.25;;;1.05;;
7051;SDS011;3567;52.444;13.556;2022-08-21T08:47:10;2.72;;;0.90;;
7051;SDS011;3567;52.444;13.556;2022-08-21T08:49:53;2.17;;;0.95;;
7051;SDS011;3567;52.444;13.556;2022-08-21T08:52:29;3.63;;;0.93;;
7051;SDS011;3567;52.444;13.556;2022-08-21T08:55:04;2.40;;;1.02;;
7051;SDS011;3567;52.444;13.556;2022-08-21T08:57:33;2.15;;;0.82;;
7051;SDS011;3567;52.444;13.556;2022-08-21T09:00:00;3.97;;;1.42;;
7051;SDS011;3567;52.444;13.556;2022-08-21T09:02:30;7.15;;;1.20;;
7051;SDS011;3567;52.444;13.556;2022-08-21T09:04:55;2.63;;;0.93;;
7051;SDS011;3567;52.444;13.556;2022-08-21T09:10:29;3.90;;;0.70;;
7051;SDS011;3567;52.444;13.556;2022-08-21T09:21:30;3.85;;;0.93;;
7051;SDS011;3567;52.444;13.556;2022-08-21T09:27:16;4.15;;;0.80;;
7051;SDS011;3567;52.444;13.556;2022-08-21T09:29:35;3.38;;;0.90;;
7051;SDS011;3567;52.444;13.556;2022-08-21T09:32:04;1.90;;;0.90;;
7051;SDS011;3567;52.444;13.556;2022-08-21T09:34:39;3.75;;;1.20;;
7051;SDS011;3567;52.444;13.556;2022-08-21T09:37:05;3.45;;;0.98;;
7051;SDS011;3567;52.444;13.556;2022-08-21T09:39:42;2.20;;;0.73;;
7051;SDS011;3567;52.444;13.556;2022-08-21T09:42:09;5.40;;;0.95;;
7051;SDS011;3567;52.444;13.556;2022-08-21T09:44:39;3.00;;;1.00;;
7051;SDS011;3567;52.444;13.556;2022-08-21T09:47:08;2.78;;;0.80;;
7051;SDS011;3567;52.444;13.556;2022-08-21T09:49:39;2.65;;;0.85;;
7051;SDS011;3567;52.444;13.556;2022-08-21T09:52:11;4.85;;;0.95;;
7051;SDS011;3567;52.444;13.556;2022-08-21T09:54:45;2.45;;;1.05;;
7051;SDS011;3567;52.444;13.556;2022-08-21T09:57:14;2.25;;;0.80;;
7051;SDS011;3567;52.444;13.556;2022-08-21T10:02:49;1.48;;;0.68;;
7051;SDS011;3567;52.444;13.556;2022-08-21T10:05:19;2.65;;;0.98;;
7051;SDS011;3567;52.444;13.556;2022-08-21T10:07:49;4.57;;;0.90;;
7051;SDS011;3567;52.444;13.556;2022-08-21T10:10:17;2.38;;;0.82;;
7051;SDS011;3567;52.444;13.556;2022-08-21T10:18:27;1.88;;;1.00;;
7051;SDS011;3567;52.444;13.556;2022-08-21T10:24:17;1.80;;;0.90;;
7051;SDS011;3567;52.444;13.556;2022-08-21T10:27:04;2.88;;;0.80;;
7051;SDS011;3567;52.444;13.556;2022-08-21T10:30:04;3.78;;;0.90;;
7051;SDS011;3567;52.444;13.556;2022-08-21T10:35:29;2.15;;;1.02;;
7051;SDS011;3567;52.444;13.556;2022-08-21T10:38:31;5.60;;;1.08;;
7051;SDS011;3567;52.444;13.556;2022-08-21T10:49:39;3.00;;;0.82;;
7051;SDS011;3567;52.444;13.556;2022-08-21T10:52:21;3.60;;;0.85;;
7051;SDS011;3567;52.444;13.556;2022-08-21T10:55:02;4.88;;;0.93;;
7051;SDS011;3567;52.444;13.556;2022-08-21T10:57:49;2.33;;;0.90;;
7051;SDS011;3567;52.444;13.556;2022-08-21T11:00:16;7.05;;;1.42;;
7051;SDS011;3567;52.444;13.556;2022-08-21T11:08:21;2.67;;;1.00;;
7051;SDS011;3567;52.444;13.556;2022-08-21T11:10:59;2.65;;;0.70;;
7051;SDS011;3567;52.444;13.556;2022-08-21T11:27:04;2.15;;;0.90;;
7051;SDS011;3567;52.444;13.556;2022-08-21T11:29:35;3.17;;;0.85;;
7051;SDS011;3567;52.444;13.556;2022-08-21T11:43:38;4.07;;;1.10;;
7051;SDS011;3567;52.444;13.556;2022-08-21T11:46:09;2.85;;;0.90;;
7051;SDS011;3567;52.444;13.556;2022-08-21T11:51:41;2.72;;;0.70;;
7051;SDS011;3567;52.444;13.556;2022-08-21T11:54:16;3.63;;;0.90;;
7051;SDS011;3567;52.444;13.556;2022-08-21T11:57:01;2.33;;;0.88;;
7051;SDS011;3567;52.444;13.556;2022-08-21T12:02:29;1.50;;;0.80;;
7051;SDS011;3567;52.444;13.556;2022-08-21T12:05:03;5.32;;;0.88;;
7051;SDS011;3567;52.444;13.556;2022-08-21T12:07:38;2.97;;;0.80;;
7051;SDS011;3567;52.444;13.556;2022-08-21T12:10:13;2.25;;;0.65;;
7051;SDS011;3567;52.444;13.556;2022-08-21T12:12:42;2.38;;;0.80;;
7051;SDS011;3567;52.444;13.556;2022-08-21T12:15:14;2.25;;;0.80;;
7051;SDS011;3567;52.444;13.556;2022-08-21T12:17:50;0.50;;;0.50;;
7051;SDS011;3567;52.444;13.556;2022-08-21T12:23:14;2.85;;;0.70;;
7051;SDS011;3567;52.444;13.556;2022-08-21T12:25:41;3.33;;;0.68;;
7051;SDS011;3567;52.444;13.556;2022-08-21T12:28:20;2.85;;;0.70;;
7051;SDS011;3567;52.444;13.556;2022-08-21T12:30:48;1.33;;;0.70;;
7051;SDS011;3567;52.444;13.556;2022-08-21T12:33:28;1.67;;;0.70;;
7051;SDS011;3567;52.444;13.556;2022-08-21T12:36:12;1.45;;;0.77;;
7051;SDS011;3567;52.444;13.556;2022-08-21T12:39:04;1.08;;;0.50;;
7051;SDS011;3567;52.444;13.556;2022-08-21T12:41:48;1.48;;;0.73;;
7051;SDS011;3567;52.444;13.556;2022-08-21T12:44:21;0.73;;;0.63;;
7051;SDS011;3567;52.444;13.556;2022-08-21T12:46:58;0.45;;;0.45;;
7051;SDS011;3567;52.444;13.556;2022-08-21T12:49:35;1.05;;;0.60;;
7051;SDS011;3567;52.444;13.556;2022-08-21T12:54:48;2.35;;;0.70;;
7051;SDS011;3567;52.444;13.556;2022-08-21T12:57:20;0.95;;;0.40;;
7051;SDS011;3567;52.444;13.556;2022-08-21T12:59:54;1.15;;;0.55;;
7051;SDS011;3567;52.444;13.556;2022-08-21T13:02:24;2.72;;;0.47;;
7051;SDS011;3567;52.444;13.556;2022-08-21T13:04:53;0.50;;;0.50;;
7051;SDS011;3567;52.444;13.556;2022-08-21T13:07:29;1.92;;;0.50;;
7051;SDS011;3567;52.444;13.556;2022-08-21T13:09:58;0.68;;;0.50;;
7051;SDS011;3567;52.444;13.556;2022-08-21T13:12:41;1.15;;;0.55;;
7051;SDS011;3567;52.444;13.556;2022-08-21T13:15:07;2.75;;;0.70;;
7051;SDS011;3567;52.444;13.556;2022-08-21T13:17:35;2.42;;;0.70;;
7051;SDS011;3567;52.444;13.556;2022-08-21T13:22:42;0.57;;;0.50;;
7051;SDS011;3567;52.444;13.556;2022-08-21T13:25:09;0.60;;;0.55;;
7051;SDS011;3567;52.444;13.556;2022-08-21T13:27:40;0.68;;;0.50;;
7051;SDS011;3567;52.444;13.556;2022-08-21T13:32:37;1.67;;;0.50;;
7051;SDS011;3567;52.444;13.556;2022-08-21T13:35:28;1.88;;;0.70;;
7051;SDS011;3567;52.444;13.556;2022-08-21T13:38:00;1.05;;;0.70;;
7051;SDS011;3567;52.444;13.556;2022-08-21T13:40:41;1.58;;;0.60;;
7051;SDS011;3567;52.444;13.556;2022-08-21T13:43:13;0.40;;;0.40;;
7051;SDS011;3567;52.444;13.556;2022-08-21T13:45:43;0.68;;;0.50;;
7051;SDS011;3567;52.444;13.556;2022-08-21T13:48:12;0.55;;;0.40;;
7051;SDS011;3567;52.444;13.556;2022-08-21T13:50:37;0.65;;;0.40;;
7051;SDS011;3567;52.444;13.556;2022-08-21T13:53:06;0.65;;;0.47;;
7051;SDS011;3567;52.444;13.556;2022-08-21T13:55:43;0.60;;;0.50;;
7051;SDS011;3567;52.444;13.556;2022-08-21T13:58:10;1.55;;;0.77;;
7051;SDS011;3567;52.444;13.556;2022-08-21T14:00:54;0.77;;;0.50;;
7051;SDS011;3567;52.444;13.556;2022-08-21T14:04:04;4.22;;;0.63;;
7051;SDS011;3567;52.444;13.556;2022-08-21T14:06:12;1.02;;;0.40;;
7051;SDS011;3567;52.444;13.556;2022-08-21T14:08:46;1.75;;;0.50;;
7051;SDS011;3567;52.444;13.556;2022-08-21T14:11:15;1.38;;;0.50;;
7051;SDS011;3567;52.444;13.556;2022-08-21T14:13:45;2.45;;;0.50;;
7051;SDS011;3567;52.444;13.556;2022-08-21T14:16:22;0.73;;;0.40;;
7051;SDS011;3567;52.444;13.556;2022-08-21T14:19:05;0.85;;;0.50;;
7051;SDS011;3567;52.444;13.556;2022-08-21T14:21:39;1.65;;;0.70;;
7051;SDS011;3567;52.444;13.556;2022-08-21T14:24:11;3.65;;;0.52;;
7051;SDS011;3567;52.444;13.556;2022-08-21T14:26:58;2.47;;;0.60;;
7051;SDS011;3567;52.444;13.556;2022-08-21T14:29:31;1.73;;;0.40;;
7051;SDS011;3567;52.444;13.556;2022-08-21T14:32:08;0.88;;;0.68;;
7051;SDS011;3567;52.444;13.556;2022-08-21T14:34:39;2.50;;;0.70;;
7051;SDS011;3567;52.444;13.556;2022-08-21T14:37:05;1.65;;;0.77;;
7051;SDS011;3567;52.444;13.556;2022-08-21T14:39:30;1.92;;;0.82;;
7051;SDS011;3567;52.444;13.556;2022-08-21T14:41:56;3.78;;;0.90;;
7051;SDS011;3567;52.444;13.556;2022-08-21T14:44:23;1.73;;;0.73;;
7051;SDS011;3567;52.444;13.556;2022-08-21T14:46:48;1.02;;;0.52;;
7051;SDS011;3567;52.444;13.556;2022-08-21T14:49:14;1.60;;;0.55;;
7051;SDS011;3567;52.444;13.556;2022-08-21T14:51:40;4.50;;;0.90;;
7051;SDS011;3567;52.444;13.556;2022-08-21T14:54:06;1.23;;;0.70;;
7051;SDS011;3567;52.444;13.556;2022-08-21T14:56:32;1.88;;;0.77;;
7051;SDS011;3567;52.444;13.556;2022-08-21T14:58:59;2.97;;;0.90;;
7051;SDS011;3567;52.444;13.556;2022-08-21T15:01:32;1.75;;;0.50;;
7051;SDS011;3567;52.444;13.556;2022-08-21T15:04:00;3.70;;;0.70;;
7051;SDS011;3567;52.444;13.556;2022-08-21T15:06:25;3.00;;;0.85;;
7051;SDS011;3567;52.444;13.556;2022-08-21T15:08:50;2.35;;;0.80;;
7051;SDS011;3567;52.444;13.556;2022-08-21T15:11:17;5.03;;;0.80;;
7051;SDS011;3567;52.444;13.556;2022-08-21T15:13:45;2.42;;;0.70;;
7051;SDS011;3567;52.444;13.556;2022-08-21T15:16:11;1.48;;;0.82;;
7051;SDS011;3567;52.444;13.556;2022-08-21T15:18:37;3.05;;;1.20;;
7051;SDS011;3567;52.444;13.556;2022-08-21T15:21:03;2.60;;;0.90;;
7051;SDS011;3567;52.444;13.556;2022-08-21T15:23:29;2.45;;;1.20;;
7051;SDS011;3567;52.444;13.556;2022-08-21T15:25:54;2.03;;;1.00;;
7051;SDS011;3567;52.444;13.556;2022-08-21T15:28:22;2.30;;;0.80;;
7051;SDS011;3567;52.444;13.556;2022-08-21T15:30:49;1.90;;;0.77;;
7051;SDS011;3567;52.444;13.556;2022-08-21T15:33:15;1.52;;;1.25;;
7051;SDS011;3567;52.444;13.556;2022-08-21T15:35:42;1.95;;;1.85;;
7051;SDS011;3567;52.444;13.556;2022-08-21T15:38:07;4.10;;;2.42;;
7051;SDS011;3567;52.444;13.556;2022-08-21T15:40:34;6.13;;;3.28;;
7051;SDS011;3567;52.444;13.556;2022-08-21T15:43:01;4.78;;;4.15;;
7051;SDS011;3567;52.444;13.556;2022-08-21T15:45:28;1.77;;;1.58;;
7051;SDS011;3567;52.444;13.556;2022-08-21T15:47:54;2.88;;;1.85;;
7051;SDS011;3567;52.444;13.556;2022-08-21T15:50:21;2.20;;;1.00;;
7051;SDS011;3567;52.444;13.556;2022-08-21T15:52:47;5.93;;;0.90;;
7051;SDS011;3567;52.444;13.556;2022-08-21T15:55:13;2.55;;;0.95;;
7051;SDS011;3567;52.444;13.556;2022-08-21T15:57:43;4.97;;;0.75;;
7051;SDS011;3567;52.444;13.556;2022-08-21T16:00:15;2.00;;;1.17;;
7051;SDS011;3567;52.444;13.556;2022-08-21T16:02:48;5.30;;;0.82;;
7051;SDS011;3567;52.444;13.556;2022-08-21T16:05:16;3.83;;;1.15;;
7051;SDS011;3567;52.444;13.556;2022-08-21T16:07:42;2.45;;;1.00;;
7051;SDS011;3567;52.444;13.556;2022-08-21T16:10:09;2.65;;;1.00;;
7051;SDS011;3567;52.444;13.556;2022-08-21T16:12:36;4.15;;;1.10;;
7051;SDS011;3567;52.444;13.556;2022-08-21T16:15:09;2.88;;;1.20;;
7051;SDS011;3567;52.444;13.556;2022-08-21T16:17:37;2.40;;;0.60;;
7051;SDS011;3567;52.444;13.556;2022-08-21T16:20:08;1.75;;;0.73;;
7051;SDS011;3567;52.444;13.556;2022-08-21T16:22:36;3.28;;;1.33;;
7051;SDS011;3567;52.444;13.556;2022-08-21T16:25:03;2.22;;;0.70;;
7051;SDS011;3567;52.444;13.556;2022-08-21T16:27:29;3.65;;;0.93;;
7051;SDS011;3567;52.444;13.556;2022-08-21T16:29:55;2.85;;;1.27;;
7051;SDS011;3567;52.444;13.556;2022-08-21T16:32:21;3.40;;;0.80;;
7051;SDS011;3567;52.444;13.556;2022-08-21T16:34:47;3.38;;;1.13;;
7051;SDS011;3567;52.444;13.556;2022-08-21T16:37:14;0.80;;;0.70;;